createdAt,value
2023-04-07T00:01:28.970Z,18.30
2023-04-07T00:03:46.109Z,17.48
2023-04-07T00:06:03.507Z,18.90
2023-04-07T00:08:20.795Z,18.25
2023-04-07T00:10:39.272Z,18.63
2023-04-07T00:12:56.633Z,18.75
2023-04-07T00:15:13.725Z,20.52
2023-04-07T00:17:30.910Z,16.67
2023-04-07T00:19:47.909Z,19.25
2023-04-07T00:22:05.033Z,21.42
2023-04-07T00:24:31.470Z,17.42
2023-04-07T00:26:51.148Z,19.80
2023-04-07T00:29:08.098Z,18.27
2023-04-07T00:31:25.132Z,19.75
2023-04-07T00:33:42.521Z,19.23
2023-04-07T00:35:59.593Z,18.65
2023-04-07T00:38:17.547Z,19.27
2023-04-07T00:40:34.917Z,19.08
2023-04-07T00:42:51.770Z,19.05
2023-04-07T00:45:09.125Z,19.95
2023-04-07T00:47:26.142Z,20.73
2023-04-07T00:49:43.289Z,17.83
2023-04-07T00:52:01.661Z,20.00
2023-04-07T00:54:18.633Z,19.10
2023-04-07T00:56:35.870Z,17.95
2023-04-07T00:58:52.906Z,17.40
2023-04-07T01:01:09.979Z,18.40
2023-04-07T01:03:28.245Z,19.15
2023-04-07T01:05:45.853Z,20.42
2023-04-07T01:08:03.224Z,22.30
2023-04-07T01:10:20.276Z,19.08
2023-04-07T01:12:37.348Z,20.67
2023-04-07T01:14:54.722Z,20.73
2023-04-07T01:17:11.617Z,24.52
2023-04-07T01:19:28.600Z,20.23
2023-04-07T01:21:45.666Z,19.13
2023-04-07T01:24:02.890Z,19.60
2023-04-07T01:26:20.277Z,21.30
2023-04-07T01:28:37.331Z,17.35
2023-04-07T01:30:54.396Z,19.45
2023-04-07T01:33:11.533Z,19.13
2023-04-07T01:35:28.898Z,19.52
2023-04-07T01:37:46.186Z,19.25
2023-04-07T01:40:03.257Z,18.80
2023-04-07T01:42:20.254Z,18.08
2023-04-07T01:44:37.331Z,20.08
2023-04-07T01:46:54.345Z,21.30
2023-04-07T01:49:11.685Z,17.60
2023-04-07T01:51:28.686Z,19.88
2023-04-07T01:53:46.003Z,21.60
2023-04-07T01:56:03.046Z,20.85
2023-04-07T01:58:20.109Z,19.92
2023-04-07T02:00:37.076Z,22.60
2023-04-07T02:02:54.222Z,21.05
2023-04-07T02:05:15.331Z,19.42
2023-04-07T02:07:32.416Z,21.88
2023-04-07T02:09:49.433Z,22.25
2023-04-07T02:12:07.684Z,22.48
2023-04-07T02:14:24.644Z,19.35
2023-04-07T02:16:41.838Z,24.52
2023-04-07T02:18:58.818Z,21.98
2023-04-07T02:21:15.843Z,21.70
2023-04-07T02:23:33.091Z,24.42
2023-04-07T02:25:51.056Z,22.67
2023-04-07T02:28:08.375Z,20.77
2023-04-07T02:30:25.649Z,23.52
2023-04-07T02:32:42.757Z,22.95
2023-04-07T02:35:00.013Z,22.90
2023-04-07T02:37:17.330Z,23.77
2023-04-07T02:39:34.268Z,24.38
2023-04-07T02:41:51.317Z,27.38
2023-04-07T02:44:08.692Z,24.40
2023-04-07T02:46:25.889Z,25.20
2023-04-07T02:48:43.108Z,25.75
2023-04-07T02:51:00.038Z,23.67
2023-04-07T02:53:17.090Z,23.83
2023-04-07T02:55:35.128Z,26.42
2023-04-07T02:57:52.155Z,23.42
2023-04-07T03:00:09.471Z,25.45
2023-04-07T03:02:26.514Z,21.42
2023-04-07T03:04:43.906Z,27.45
2023-04-07T03:07:00.842Z,22.60
2023-04-07T03:09:18.143Z,26.02
2023-04-07T03:11:35.114Z,23.52
2023-04-07T03:13:52.211Z,23.98
2023-04-07T03:16:09.466Z,25.98
2023-04-07T03:18:26.486Z,27.17
2023-04-07T03:20:44.760Z,26.58
2023-04-07T03:23:01.842Z,25.35
2023-04-07T03:25:18.743Z,27.58
2023-04-07T03:27:35.601Z,24.90
2023-04-07T03:29:52.871Z,26.42
2023-04-07T03:32:09.907Z,26.02
2023-04-07T03:34:26.948Z,27.48
2023-04-07T03:36:44.170Z,23.50
2023-04-07T03:39:01.211Z,23.05
2023-04-07T03:41:18.494Z,23.35
2023-04-07T03:43:35.387Z,25.67
2023-04-07T03:45:52.448Z,27.60
2023-04-07T03:48:09.525Z,25.02
2023-04-07T03:50:26.502Z,28.23
2023-04-07T03:52:43.501Z,23.25
2023-04-07T03:55:00.618Z,23.90
2023-04-07T03:57:17.898Z,25.45
2023-04-07T03:59:34.969Z,25.60
2023-04-07T04:01:51.928Z,25.83
2023-04-07T04:04:09.160Z,25.80
2023-04-07T04:06:26.200Z,27.95
2023-04-07T04:08:43.505Z,26.08
2023-04-07T04:11:00.783Z,26.00
2023-04-07T04:13:18.035Z,29.58
2023-04-07T04:15:35.107Z,28.45
2023-04-07T04:17:52.001Z,26.27
2023-04-07T04:20:09.084Z,28.42
2023-04-07T04:22:25.998Z,31.63
2023-04-07T04:24:45.675Z,29.83
2023-04-07T04:27:02.685Z,28.35
2023-04-07T04:29:20.602Z,28.65
2023-04-07T04:31:37.912Z,27.13
2023-04-07T04:33:55.428Z,25.33
2023-04-07T04:36:12.921Z,25.85
2023-04-07T04:38:29.938Z,26.90
2023-04-07T04:40:47.210Z,28.33
2023-04-07T04:43:04.560Z,25.20
2023-04-07T04:45:21.502Z,27.23
2023-04-07T04:47:39.460Z,26.58
2023-04-07T04:49:56.814Z,26.42
2023-04-07T04:52:13.799Z,27.83
2023-04-07T04:54:31.082Z,24.30
2023-04-07T04:56:48.100Z,27.35
2023-04-07T04:59:05.034Z,24.25
2023-04-07T05:01:22.123Z,26.83
2023-04-07T05:03:39.403Z,25.15
2023-04-07T05:05:56.792Z,27.35
2023-04-07T05:08:13.734Z,33.10
2023-04-07T05:10:30.639Z,27.00
2023-04-07T05:12:47.519Z,29.77
2023-04-07T05:15:04.754Z,30.35
2023-04-07T05:17:21.718Z,24.30
2023-04-07T05:19:38.705Z,30.45
2023-04-07T05:21:55.673Z,26.08
2023-04-07T05:24:12.955Z,25.45
2023-04-07T05:26:29.908Z,26.90
2023-04-07T05:28:46.889Z,27.02
2023-04-07T05:31:05.723Z,50.80
2023-04-07T05:33:24.542Z,49.78
2023-04-07T05:35:42.806Z,35.33
2023-04-07T05:37:59.864Z,31.10
2023-04-07T05:40:16.793Z,29.83
2023-04-07T05:42:34.067Z,27.77
2023-04-07T05:44:51.110Z,27.63
2023-04-07T05:47:08.142Z,27.67
2023-04-07T05:49:25.189Z,35.33
2023-04-07T05:51:42.405Z,29.45
2023-04-07T05:53:59.462Z,30.38
2023-04-07T05:56:17.519Z,28.92
2023-04-07T05:58:34.414Z,32.55
2023-04-07T06:00:51.346Z,30.02
2023-04-07T06:03:08.507Z,31.30
2023-04-07T06:05:25.942Z,30.55
2023-04-07T06:07:42.958Z,27.77
2023-04-07T06:10:00.253Z,31.40
2023-04-07T06:12:17.493Z,28.05
2023-04-07T06:14:34.720Z,29.02
2023-04-07T06:16:52.086Z,26.83
2023-04-07T06:19:09.053Z,28.75
2023-04-07T06:21:26.354Z,26.65
2023-04-07T06:23:43.330Z,25.45
2023-04-07T06:26:00.771Z,24.75
2023-04-07T06:28:18.051Z,30.63
2023-04-07T06:30:34.955Z,27.38
2023-04-07T06:32:51.989Z,25.83
2023-04-07T06:35:08.947Z,25.02
2023-04-07T06:37:25.878Z,26.50
2023-04-07T06:39:43.055Z,24.60
2023-04-07T06:42:00.385Z,25.58
2023-04-07T06:44:17.558Z,28.75
2023-04-07T06:46:34.683Z,28.92
2023-04-07T06:48:51.773Z,27.90
2023-04-07T06:51:08.896Z,26.75
2023-04-07T06:53:25.930Z,31.60
2023-04-07T06:55:43.196Z,28.75
2023-04-07T06:58:00.209Z,29.42
2023-04-07T07:00:17.152Z,30.50
2023-04-07T07:02:34.560Z,25.08
2023-04-07T07:04:51.632Z,28.33
2023-04-07T07:07:08.669Z,26.75
2023-04-07T07:09:25.886Z,24.13
2023-04-07T07:11:43.897Z,28.35
2023-04-07T07:14:01.134Z,27.20
2023-04-07T07:16:19.209Z,23.88
2023-04-07T07:18:37.486Z,22.75
2023-04-07T07:20:54.384Z,23.30
2023-04-07T07:23:12.278Z,20.48
2023-04-07T07:25:29.263Z,39.45
2023-04-07T07:27:46.207Z,69.93
2023-04-07T07:30:03.311Z,46.42
2023-04-07T07:32:20.372Z,23.60
2023-04-07T07:34:37.417Z,11.38
2023-04-07T07:36:54.714Z,12.75
2023-04-07T07:39:11.684Z,14.15
2023-04-07T07:41:28.712Z,6.53
2023-04-07T07:43:46.225Z,6.97
2023-04-07T07:46:03.289Z,4.63
2023-04-07T07:48:20.263Z,3.50
2023-04-07T07:50:37.167Z,2.65
2023-04-07T07:52:54.412Z,3.83
2023-04-07T07:55:11.658Z,6.65
2023-04-07T07:57:28.654Z,5.28
2023-04-07T07:59:45.625Z,4.22
2023-04-07T08:02:02.743Z,3.17
2023-04-07T08:04:19.865Z,4.35
2023-04-07T08:06:37.195Z,8.65
2023-04-07T08:08:54.094Z,8.05
2023-04-07T08:11:11.228Z,4.20
2023-04-07T08:13:28.504Z,5.85
2023-04-07T08:15:45.879Z,3.92
2023-04-07T08:18:02.996Z,5.00
2023-04-07T08:20:20.031Z,5.50
2023-04-07T08:22:36.896Z,3.42
2023-04-07T08:24:54.098Z,3.88
2023-04-07T08:27:11.334Z,4.50
2023-04-07T08:29:29.096Z,3.58
2023-04-07T08:31:47.461Z,5.45
2023-04-07T08:34:04.435Z,7.53
2023-04-07T08:36:22.641Z,5.10
2023-04-07T08:38:39.529Z,4.57
2023-04-07T08:40:56.567Z,5.03
2023-04-07T08:43:13.632Z,5.75
2023-04-07T08:45:30.942Z,5.35
2023-04-07T08:47:48.020Z,5.22
2023-04-07T08:50:05.109Z,7.35
2023-04-07T08:52:22.326Z,5.38
2023-04-07T08:54:39.580Z,7.00
2023-04-07T08:56:56.831Z,6.15
2023-04-07T08:59:13.769Z,9.65
2023-04-07T09:01:30.811Z,8.48
2023-04-07T09:03:48.153Z,8.77
2023-04-07T09:06:05.370Z,10.90
2023-04-07T09:08:23.572Z,8.13
2023-04-07T09:10:40.486Z,9.82
2023-04-07T09:12:57.425Z,11.38
2023-04-07T09:15:14.456Z,8.73
2023-04-07T09:17:31.726Z,11.77
2023-04-07T09:19:50.078Z,15.73
2023-04-07T09:22:07.417Z,11.55
2023-04-07T09:24:25.433Z,10.73
2023-04-07T09:26:42.429Z,13.25
2023-04-07T09:28:59.353Z,11.15
2023-04-07T09:31:17.615Z,11.18
2023-04-07T09:33:34.440Z,9.88
2023-04-07T09:35:51.689Z,9.80
2023-04-07T09:38:08.966Z,11.40
2023-04-07T09:40:26.066Z,12.35
2023-04-07T09:42:43.115Z,11.27
2023-04-07T09:44:59.998Z,9.65
2023-04-07T09:47:17.079Z,9.05
2023-04-07T09:49:34.392Z,11.77
2023-04-07T09:51:52.715Z,10.68
2023-04-07T09:54:09.618Z,9.55
2023-04-07T09:56:26.575Z,12.77
2023-04-07T09:58:43.564Z,8.82
2023-04-07T10:01:00.608Z,9.20
2023-04-07T10:03:17.904Z,11.18
2023-04-07T10:05:35.013Z,11.40
2023-04-07T10:07:53.198Z,11.10
2023-04-07T10:10:11.129Z,8.73
2023-04-07T10:12:28.018Z,8.65
2023-04-07T10:14:44.961Z,6.93
2023-04-07T10:17:02.059Z,10.35
2023-04-07T10:19:19.029Z,10.65
2023-04-07T10:21:36.113Z,9.50
2023-04-07T10:23:53.193Z,8.93
2023-04-07T10:26:10.173Z,8.43
2023-04-07T10:28:27.477Z,9.38
2023-04-07T10:30:44.346Z,10.45
2023-04-07T10:33:01.498Z,9.80
2023-04-07T10:35:18.537Z,12.15
2023-04-07T10:37:35.849Z,9.85
2023-04-07T10:39:53.734Z,11.15
2023-04-07T10:42:11.021Z,10.88
2023-04-07T10:44:28.899Z,13.00
2023-04-07T10:46:45.951Z,13.80
2023-04-07T10:49:02.972Z,12.10
2023-04-07T10:51:20.316Z,11.20
2023-04-07T10:53:37.534Z,12.75
2023-04-07T10:55:54.397Z,14.18
2023-04-07T10:58:11.713Z,13.73
2023-04-07T11:00:28.958Z,14.40
2023-04-07T11:02:46.003Z,14.05
2023-04-07T11:05:03.175Z,14.25
2023-04-07T11:07:20.468Z,15.50
2023-04-07T11:09:37.547Z,16.67
2023-04-07T11:11:54.613Z,14.85
2023-04-07T11:14:11.499Z,19.00
2023-04-07T11:16:28.565Z,14.85
2023-04-07T11:18:45.780Z,15.85
2023-04-07T11:21:02.975Z,18.42
2023-04-07T11:23:20.000Z,17.70
2023-04-07T11:25:37.420Z,16.60
2023-04-07T11:27:54.691Z,18.13
2023-04-07T11:30:11.949Z,18.92
2023-04-07T11:32:30.232Z,16.55
2023-04-07T11:34:47.316Z,18.08
2023-04-07T11:37:04.340Z,16.42
2023-04-07T11:39:21.256Z,15.95
2023-04-07T11:41:38.299Z,18.98
2023-04-07T11:43:55.209Z,17.55
2023-04-07T11:46:12.598Z,19.67
2023-04-07T11:48:29.991Z,17.00
2023-04-07T11:50:47.001Z,16.95
2023-04-07T11:53:04.344Z,17.05
2023-04-07T11:55:22.450Z,20.63
2023-04-07T11:57:39.862Z,18.70
2023-04-07T11:59:57.089Z,16.50
2023-04-07T12:02:14.401Z,20.70
2023-04-07T12:04:32.594Z,15.48
2023-04-07T12:06:50.016Z,21.50
2023-04-07T12:09:07.092Z,22.38
2023-04-07T12:11:24.080Z,16.77
2023-04-07T12:13:41.004Z,29.65
2023-04-07T12:15:57.961Z,20.38
2023-04-07T12:18:14.979Z,17.48
2023-04-07T12:20:33.282Z,17.45
2023-04-07T12:22:50.321Z,14.77
2023-04-07T12:25:07.332Z,18.60
2023-04-07T12:27:35.881Z,13.75
2023-04-07T12:29:59.281Z,18.00
2023-04-07T12:32:16.451Z,18.52
2023-04-07T12:34:33.414Z,16.30
2023-04-07T12:36:50.667Z,19.23
2023-04-07T12:39:07.607Z,17.95
2023-04-07T12:41:24.912Z,18.27
2023-04-07T12:43:41.962Z,15.68
2023-04-07T12:45:58.967Z,16.02
2023-04-07T12:48:15.917Z,15.52
2023-04-07T12:50:32.835Z,14.40
2023-04-07T12:52:49.863Z,13.68
2023-04-07T12:55:06.870Z,15.55
2023-04-07T12:57:24.936Z,13.32
2023-04-07T12:59:41.966Z,16.02
2023-04-07T13:01:59.200Z,13.20
2023-04-07T13:04:16.418Z,13.98
2023-04-07T13:06:33.818Z,12.23
2023-04-07T13:08:51.708Z,12.65
2023-04-07T13:11:08.728Z,13.35
2023-04-07T13:13:25.616Z,12.35
2023-04-07T13:15:42.567Z,12.75
2023-04-07T13:17:59.590Z,12.77
2023-04-07T13:20:19.789Z,13.88
2023-04-07T13:22:46.114Z,12.68
2023-04-07T13:25:06.261Z,10.30
2023-04-07T13:27:23.300Z,12.73
2023-04-07T13:29:41.233Z,13.13
2023-04-07T13:31:58.286Z,13.60
2023-04-07T13:34:15.353Z,11.52
2023-04-07T13:36:32.428Z,10.05
2023-04-07T13:38:49.688Z,11.05
2023-04-07T13:41:07.038Z,10.77
2023-04-07T13:43:25.352Z,11.30
2023-04-07T13:45:42.729Z,8.90
2023-04-07T13:48:00.104Z,11.13
2023-04-07T13:50:17.365Z,8.80
2023-04-07T13:52:34.409Z,9.95
2023-04-07T13:54:51.669Z,11.98
2023-04-07T13:57:08.697Z,9.80
2023-04-07T13:59:25.637Z,8.90
2023-04-07T14:01:43.752Z,7.30
2023-04-07T14:04:01.278Z,10.00
2023-04-07T14:06:18.560Z,21.63
2023-04-07T14:08:35.472Z,12.38
2023-04-07T14:10:52.795Z,10.75
2023-04-07T14:13:10.197Z,14.32
2023-04-07T14:15:27.093Z,9.73
2023-04-07T14:17:45.062Z,10.25
2023-04-07T14:20:01.987Z,11.02
2023-04-07T14:22:19.293Z,9.65
2023-04-07T14:24:36.554Z,10.55
2023-04-07T14:26:53.925Z,13.30
2023-04-07T14:29:10.916Z,10.07
2023-04-07T14:31:28.300Z,8.18
2023-04-07T14:33:45.252Z,7.03
2023-04-07T14:36:02.369Z,7.50
2023-04-07T14:38:19.658Z,6.95
2023-04-07T14:40:36.738Z,7.78
2023-04-07T14:43:06.937Z,8.60
2023-04-07T14:45:24.613Z,7.25
2023-04-07T14:47:41.627Z,7.13
2023-04-07T14:49:58.789Z,7.57
2023-04-07T14:52:15.704Z,7.50
2023-04-07T14:54:33.017Z,5.95
2023-04-07T14:56:49.950Z,7.32
2023-04-07T14:59:07.890Z,3.92
2023-04-07T15:01:24.879Z,5.07
2023-04-07T15:03:42.015Z,6.18
2023-04-07T15:05:59.332Z,3.90
2023-04-07T15:08:16.285Z,3.58
2023-04-07T15:10:33.304Z,4.13
2023-04-07T15:12:50.563Z,5.55
2023-04-07T15:15:07.600Z,4.32
2023-04-07T15:17:36.410Z,3.72
2023-04-07T15:20:00.152Z,4.07
2023-04-07T15:22:18.624Z,4.47
2023-04-07T15:24:35.834Z,5.30
2023-04-07T15:26:53.033Z,4.25
2023-04-07T15:29:09.955Z,6.00
2023-04-07T15:31:26.884Z,5.47
2023-04-07T15:33:43.925Z,4.88
2023-04-07T15:36:01.122Z,7.20
2023-04-07T15:38:18.259Z,8.70
2023-04-07T15:40:35.163Z,5.63
2023-04-07T15:42:52.478Z,5.82
2023-04-07T15:45:09.411Z,5.30
2023-04-07T15:47:26.516Z,5.53
2023-04-07T15:49:43.406Z,6.47
2023-04-07T15:52:00.310Z,8.35
2023-04-07T15:54:17.665Z,10.68
2023-04-07T15:56:34.924Z,7.50
2023-04-07T15:58:52.242Z,6.15
2023-04-07T16:01:09.353Z,6.15
2023-04-07T16:03:26.577Z,6.93
2023-04-07T16:05:43.615Z,6.60
2023-04-07T16:08:00.942Z,5.30
2023-04-07T16:10:17.932Z,6.88
2023-04-07T16:12:34.888Z,7.97
2023-04-07T16:14:52.045Z,6.30
2023-04-07T16:17:09.387Z,8.15
2023-04-07T16:19:27.434Z,5.78
2023-04-07T16:21:44.475Z,6.45
2023-04-07T16:24:01.481Z,6.13
2023-04-07T16:26:18.582Z,6.20
2023-04-07T16:28:35.641Z,7.80
2023-04-07T16:30:52.718Z,8.23
2023-04-07T16:33:10.051Z,8.07
2023-04-07T16:35:28.148Z,9.43
2023-04-07T16:37:45.001Z,8.55
2023-04-07T16:40:02.402Z,10.10
2023-04-07T16:42:19.351Z,10.00
2023-04-07T16:44:36.394Z,10.77
2023-04-07T16:46:53.649Z,10.00
2023-04-07T16:49:11.013Z,11.00
2023-04-07T16:51:28.048Z,9.98
2023-04-07T16:53:45.237Z,9.07
2023-04-07T16:56:02.191Z,10.85
2023-04-07T16:58:19.561Z,14.77
2023-04-07T17:00:36.574Z,9.82
2023-04-07T17:02:53.705Z,10.15
2023-04-07T17:05:10.827Z,12.50
2023-04-07T17:07:28.139Z,12.57
2023-04-07T17:09:45.093Z,9.68
2023-04-07T17:12:02.170Z,14.25
2023-04-07T17:14:19.253Z,10.90
2023-04-07T17:16:37.333Z,9.35
2023-04-07T17:18:54.210Z,11.77
2023-04-07T17:21:11.278Z,10.95
2023-04-07T17:23:28.354Z,12.20
2023-04-07T17:25:45.470Z,14.95
2023-04-07T17:28:03.913Z,10.80
2023-04-07T17:30:21.217Z,13.50
2023-04-07T17:32:39.327Z,12.40
2023-04-07T17:34:56.673Z,9.23
2023-04-07T17:37:13.995Z,10.20
2023-04-07T17:39:31.362Z,12.35
2023-04-07T17:41:48.397Z,11.80
2023-04-07T17:44:07.350Z,11.02
2023-04-07T17:46:24.660Z,11.32
2023-04-07T17:48:42.626Z,11.43
2023-04-07T17:50:59.526Z,8.95
2023-04-07T17:53:16.453Z,9.90
2023-04-07T17:55:33.619Z,10.77
2023-04-07T17:57:50.898Z,10.25
2023-04-07T18:00:07.901Z,11.35
2023-04-07T18:02:26.390Z,11.88
2023-04-07T18:04:43.880Z,13.88
2023-04-07T18:07:01.070Z,13.48
2023-04-07T18:09:19.731Z,11.60
2023-04-07T18:11:36.973Z,10.77
2023-04-07T18:13:53.993Z,12.05
2023-04-07T18:16:11.297Z,10.93
2023-04-07T18:18:28.380Z,13.80
2023-04-07T18:20:46.414Z,11.23
2023-04-07T18:23:03.323Z,12.73
2023-04-07T18:25:20.317Z,12.27
2023-04-07T18:27:37.213Z,12.15
2023-04-07T18:29:55.537Z,10.82
2023-04-07T18:32:12.772Z,12.95
2023-04-07T18:34:29.887Z,11.27
2023-04-07T18:36:46.932Z,14.43
2023-04-07T18:39:03.874Z,11.10
2023-04-07T18:41:20.744Z,9.90
2023-04-07T18:43:37.781Z,13.48
2023-04-07T18:45:56.791Z,12.90
2023-04-07T18:48:14.717Z,22.02
2023-04-07T18:50:31.692Z,23.67
2023-04-07T18:52:48.689Z,17.02
2023-04-07T18:55:05.593Z,18.85
2023-04-07T18:57:22.966Z,19.20
2023-04-07T18:59:40.071Z,21.33
2023-04-07T19:01:57.211Z,21.00
2023-04-07T19:04:14.195Z,13.13
2023-04-07T19:06:31.335Z,15.20
2023-04-07T19:08:48.255Z,13.40
2023-04-07T19:11:05.527Z,12.15
2023-04-07T19:13:22.435Z,11.50
2023-04-07T19:15:40.789Z,10.48
2023-04-07T19:17:58.110Z,14.70
2023-04-07T19:20:15.128Z,17.92
2023-04-07T19:22:32.019Z,12.88
2023-04-07T19:24:50.221Z,14.15
2023-04-07T19:27:07.470Z,16.60
2023-04-07T19:29:24.470Z,28.20
2023-04-07T19:31:41.560Z,20.70
2023-04-07T19:33:58.477Z,20.77
2023-04-07T19:36:15.463Z,25.58
2023-04-07T19:38:32.486Z,20.65
2023-04-07T19:40:49.815Z,18.98
2023-04-07T19:43:06.844Z,15.23
2023-04-07T19:45:23.819Z,15.30
2023-04-07T19:47:40.867Z,15.30
2023-04-07T19:49:59.147Z,13.82
2023-04-07T19:52:17.227Z,18.02
2023-04-07T19:54:36.370Z,16.55
2023-04-07T19:56:53.470Z,13.13
2023-04-07T19:59:11.495Z,11.45
2023-04-07T20:01:28.988Z,13.05
2023-04-07T20:03:46.160Z,16.92
2023-04-07T20:06:03.220Z,14.27
2023-04-07T20:08:20.232Z,12.68
2023-04-07T20:10:37.176Z,15.07
2023-04-07T20:12:55.069Z,13.70
2023-04-07T20:15:11.981Z,18.30
2023-04-07T20:17:29.367Z,17.38
2023-04-07T20:19:46.437Z,14.10
2023-04-07T20:22:03.679Z,13.43
2023-04-07T20:24:20.948Z,16.75
2023-04-07T20:26:37.915Z,14.05
2023-04-07T20:28:55.850Z,18.52
2023-04-07T20:31:12.922Z,13.63
2023-04-07T20:33:29.890Z,15.88
2023-04-07T20:35:46.935Z,15.00
2023-04-07T20:38:04.019Z,12.85
2023-04-07T20:40:21.270Z,15.20
2023-04-07T20:42:38.299Z,17.00
2023-04-07T20:44:55.339Z,13.75
2023-04-07T20:47:13.274Z,13.98
2023-04-07T20:49:30.516Z,14.55
2023-04-07T20:51:47.825Z,14.82
2023-04-07T20:54:04.730Z,14.93
2023-04-07T20:56:21.804Z,20.48
2023-04-07T20:58:38.843Z,23.08
2023-04-07T21:00:57.011Z,18.73
2023-04-07T21:03:14.588Z,30.42
2023-04-07T21:05:31.808Z,32.08
2023-04-07T21:07:49.501Z,24.90
2023-04-07T21:10:06.624Z,30.88
2023-04-07T21:12:23.695Z,25.70
2023-04-07T21:14:40.735Z,29.70
2023-04-07T21:16:57.770Z,31.33
2023-04-07T21:19:14.705Z,27.55
2023-04-07T21:21:31.851Z,21.45
2023-04-07T21:23:48.973Z,22.17
2023-04-07T21:26:05.899Z,18.77
2023-04-07T21:28:22.885Z,18.23
2023-04-07T21:30:40.194Z,18.25
2023-04-07T21:32:57.313Z,17.15
2023-04-07T21:35:14.405Z,16.10
2023-04-07T21:37:31.463Z,20.40
2023-04-07T21:39:48.671Z,22.95
2023-04-07T21:42:06.046Z,26.80
2023-04-07T21:44:22.987Z,19.08
2023-04-07T21:46:40.050Z,17.45
2023-04-07T21:48:57.051Z,18.90
2023-04-07T21:51:14.134Z,18.20
2023-04-07T21:53:31.406Z,16.67
2023-04-07T21:55:48.445Z,19.92
2023-04-07T21:58:05.417Z,15.60
2023-04-07T22:00:22.529Z,18.55
2023-04-07T22:02:39.914Z,16.67
2023-04-07T22:04:57.398Z,17.27
2023-04-07T22:07:14.438Z,21.25
2023-04-07T22:09:31.501Z,17.27
2023-04-07T22:11:48.559Z,19.08
2023-04-07T22:14:05.539Z,17.52
2023-04-07T22:16:23.498Z,18.63
2023-04-07T22:18:40.483Z,25.67
2023-04-07T22:20:57.623Z,18.50
2023-04-07T22:23:14.677Z,16.38
2023-04-07T22:25:31.743Z,21.67
2023-04-07T22:27:48.837Z,21.95
2023-04-07T22:30:05.803Z,17.13
2023-04-07T22:32:23.226Z,19.10
2023-04-07T22:34:40.585Z,19.38
2023-04-07T22:36:57.575Z,20.33
2023-04-07T22:39:14.596Z,19.65
2023-04-07T22:41:31.479Z,19.05
2023-04-07T22:43:48.714Z,20.10
2023-04-07T22:46:05.908Z,16.58
2023-04-07T22:48:22.971Z,20.88
2023-04-07T22:50:40.004Z,18.45
2023-04-07T22:52:57.332Z,25.00
2023-04-07T22:55:14.309Z,18.10
2023-04-07T22:57:31.253Z,19.98
2023-04-07T22:59:48.370Z,20.85
2023-04-07T23:02:05.804Z,19.90
2023-04-07T23:04:22.975Z,22.52
2023-04-07T23:06:40.172Z,19.35
2023-04-07T23:08:57.443Z,16.77
2023-04-07T23:11:15.367Z,21.17
2023-04-07T23:13:32.328Z,16.83
2023-04-07T23:15:49.629Z,19.45
2023-04-07T23:18:06.711Z,23.60
2023-04-07T23:20:23.657Z,20.08
2023-04-07T23:22:40.786Z,21.30
2023-04-07T23:24:58.120Z,19.92
2023-04-07T23:27:15.168Z,18.42
2023-04-07T23:29:32.138Z,18.90
2023-04-07T23:31:49.551Z,20.33
2023-04-07T23:34:07.702Z,21.42
2023-04-07T23:36:24.653Z,20.20
2023-04-07T23:38:42.067Z,22.80
2023-04-07T23:40:59.079Z,21.58
2023-04-07T23:43:16.454Z,19.85
2023-04-07T23:45:33.842Z,18.92
2023-04-07T23:47:50.974Z,18.92
2023-04-07T23:50:07.970Z,23.90
2023-04-07T23:52:24.976Z,29.65
2023-04-07T23:54:42.252Z,20.27
2023-04-07T23:56:59.211Z,26.65
2023-04-07T23:59:16.158Z,23.95
